Time;durP1;ratioP1;P1;durP2;ratioP2;P2;SDS_P1;SDS_P2;PMS_P1;PMS_P2;Temp;Humidity;BMP_temperature;BMP_pressure;BME280_temperature;BME280_humidity;BME280_pressure;Samples;Min_cycle;Max_cycle;Signal;HPM_P1;HPM_P2
2023/02/18 00:01:13;;;;;;;11.63;6.55;;;;;;;14.08;78.92;102341.75;5076455;28;20044;-73
2023/02/18 00:03:41;;;;;;;9.20;6.20;;;;;;;13.91;79.86;102341.41;5075300;28;20044;-72
2023/02/18 00:06:15;;;;;;;11.27;6.00;;;;;;;13.81;80.38;102340.72;5073839;28;20040;-71
2023/02/18 00:08:43;;;;;;;10.55;6.53;;;;;;;13.92;80.42;102329.19;5074309;28;20068;-72
2023/02/18 00:11:12;;;;;;;9.23;6.47;;;;;;;13.76;80.58;102340.75;5074394;28;20053;-75
2023/02/18 00:13:39;;;;;;;10.27;6.07;;;;;;;14.00;79.69;102338.81;5074318;28;20068;-72
2023/02/18 00:16:09;;;;;;;9.10;6.50;;;;;;;13.95;80.11;102341.63;5108961;28;20066;-74
2023/02/18 00:18:38;;;;;;;10.35;6.18;;;;;;;14.10;78.76;102342.28;5097063;28;20048;-71
2023/02/18 00:21:07;;;;;;;9.10;5.72;;;;;;;13.91;79.27;102349.72;5087608;28;20056;-71
2023/02/18 00:23:35;;;;;;;10.23;5.75;;;;;;;13.77;80.11;102342.41;5077907;28;20056;-72
2023/02/18 00:26:06;;;;;;;10.50;6.07;;;;;;;13.85;79.85;102339.81;5076184;28;20368;-72
2023/02/18 00:28:34;;;;;;;12.45;5.93;;;;;;;13.76;80.39;102344.34;5060483;28;20044;-72
2023/02/18 00:31:11;;;;;;;9.38;5.45;;;;;;;13.76;80.54;102337.97;5077631;28;20052;-71
2023/02/18 00:33:40;;;;;;;7.88;5.40;;;;;;;13.73;80.34;102336.66;5077261;28;20048;-72
2023/02/18 00:36:10;;;;;;;8.90;5.18;;;;;;;13.76;79.35;102340.75;5068040;28;20515;-71
2023/02/18 00:38:38;;;;;;;10.57;5.05;;;;;;;13.53;80.27;102336.84;5060745;28;20048;-71
2023/02/18 00:41:05;;;;;;;12.00;5.88;;;;;;;13.73;80.40;102341.34;5076159;28;20066;-72
2023/02/18 00:43:33;;;;;;;8.60;5.72;;;;;;;13.80;79.59;102333.50;5075312;28;20063;-71
2023/02/18 00:46:01;;;;;;;8.50;4.75;;;;;;;13.69;79.73;102335.56;5088581;28;20537;-70
2023/02/18 00:48:31;;;;;;;8.27;4.95;;;;;;;13.82;79.53;102336.81;5086038;28;20046;-72
2023/02/18 00:50:59;;;;;;;8.13;5.30;;;;;;;13.70;79.13;102328.09;5089738;28;20048;-71
2023/02/18 00:53:28;;;;;;;8.93;5.30;;;;;;;13.63;79.96;102328.47;5074535;28;20048;-71
2023/02/18 00:55:56;;;;;;;8.18;5.13;;;;;;;13.84;79.35;102334.56;5062920;28;20044;-72
2023/02/18 00:58:24;;;;;;;7.82;4.72;;;;;;;13.71;79.79;102333.34;5068931;28;20547;-72
2023/02/18 01:00:52;;;;;;;8.65;5.00;;;;;;;13.83;79.32;102325.44;5074879;28;20049;-72
2023/02/18 01:03:21;;;;;;;7.68;5.00;;;;;;;13.88;78.92;102325.38;5059723;28;20049;-71
2023/02/18 01:05:49;;;;;;;10.05;5.22;;;;;;;13.77;79.63;102328.56;5061657;28;20055;-72
2023/02/18 01:08:18;;;;;;;8.10;5.90;;;;;;;13.61;80.00;102319.63;5076559;28;20061;-72
2023/02/18 01:10:47;;;;;;;10.55;5.90;;;;;;;13.90;80.04;102317.59;5066513;28;20052;-72
2023/02/18 01:13:15;;;;;;;9.95;5.55;;;;;;;13.81;79.69;102315.78;5059477;28;20036;-72
2023/02/18 01:15:45;;;;;;;11.15;5.72;;;;;;;13.68;80.57;102314.56;5076358;28;20049;-72
2023/02/18 01:18:13;;;;;;;9.43;6.00;;;;;;;13.87;79.71;102318.19;5073406;28;20062;-71
2023/02/18 01:20:42;;;;;;;10.60;5.97;;;;;;;13.67;80.39;102314.84;5076329;28;20040;-71
2023/02/18 01:23:10;;;;;;;9.75;5.97;;;;;;;13.76;80.27;102308.34;5069668;28;20068;-71
2023/02/18 01:25:38;;;;;;;8.65;5.90;;;;;;;13.77;80.67;102312.78;5088380;28;20040;-71
2023/02/18 01:28:08;;;;;;;10.05;5.82;;;;;;;13.75;80.72;102306.72;5074663;28;20055;-70
2023/02/18 01:30:35;;;;;;;8.52;5.80;;;;;;;13.79;80.50;102315.25;5073710;28;20044;-64
2023/02/18 01:33:04;;;;;;;8.10;5.78;;;;;;;13.77;80.25;102307.25;5075947;28;20044;-63
2023/02/18 01:35:32;;;;;;;10.15;6.03;;;;;;;13.85;80.04;102308.50;5064846;28;20049;-62
2023/02/18 01:37:59;;;;;;;9.50;5.80;;;;;;;13.66;80.24;102310.41;5072166;28;20061;-71
2023/02/18 01:40:29;;;;;;;8.82;5.85;;;;;;;13.64;79.89;102301.56;5084206;28;20059;-70
2023/02/18 01:42:56;;;;;;;6.85;4.85;;;;;;;13.36;79.92;102306.88;5059238;28;20048;-62
2023/02/18 01:45:33;;;;;;;9.10;5.50;;;;;;;13.21;81.13;102303.47;5090092;28;20165;-62
2023/02/18 01:48:16;;;;;;;6.78;4.78;;;;;;;13.46;80.28;102301.22;5075147;28;20049;-64
2023/02/18 01:50:47;;;;;;;8.48;4.90;;;;;;;13.44;79.43;102292.38;5074114;28;20067;-64
2023/02/18 01:53:19;;;;;;;8.90;4.90;;;;;;;13.38;79.37;102296.34;5076552;28;20056;-64
2023/02/18 01:55:48;;;;;;;7.07;4.28;;;;;;;13.58;78.39;102289.75;5074824;28;20041;-63
2023/02/18 01:58:16;;;;;;;9.27;4.78;;;;;;;13.66;77.98;102294.63;5079650;28;20044;-63
2023/02/18 02:00:45;;;;;;;7.13;4.40;;;;;;;13.36;78.32;102281.16;5089893;28;20063;-63
2023/02/18 02:03:14;;;;;;;7.63;4.40;;;;;;;13.32;78.44;102285.63;5073793;28;20048;-63
2023/02/18 02:05:43;;;;;;;8.77;4.47;;;;;;;13.23;79.00;102277.13;5073586;28;20047;-63
2023/02/18 02:08:15;;;;;;;7.82;4.55;;;;;;;13.23;78.96;102281.88;5056482;28;20060;-64
2023/02/18 02:10:58;;;;;;;7.22;4.20;;;;;;;13.32;78.02;102277.31;5074143;28;20049;-64
2023/02/18 02:13:34;;;;;;;7.30;3.95;;;;;;;13.12;78.30;102277.53;5074812;28;20075;-65
2023/02/18 02:16:36;;;;;;;8.70;3.95;;;;;;;13.08;78.77;102273.69;5075994;28;20049;-65
2023/02/18 02:19:34;;;;;;;8.13;4.07;;;;;;;13.19;78.13;102270.56;5074533;28;20155;-63
2023/02/18 02:22:25;;;;;;;7.18;4.13;;;;;;;13.34;78.00;102267.59;5073981;28;20055;-63
2023/02/18 02:25:15;;;;;;;9.10;3.97;;;;;;;13.37;77.60;102266.22;5074605;28;20056;-63
2023/02/18 02:27:52;;;;;;;6.93;3.80;;;;;;;13.43;77.01;102257.53;5075249;28;20056;-63
2023/02/18 02:30:28;;;;;;;7.38;3.50;;;;;;;13.45;76.93;102260.00;5075015;28;20049;-63
2023/02/18 02:33:04;;;;;;;6.38;3.90;;;;;;;13.24;76.72;102259.44;5076229;28;20503;-63
2023/02/18 02:35:59;;;;;;;8.40;3.83;;;;;;;13.16;77.22;102248.19;5074804;28;20048;-63
2023/02/18 02:38:38;;;;;;;6.13;3.67;;;;;;;13.27;77.63;102258.84;5053543;28;20052;-63
2023/02/18 02:41:18;;;;;;;5.85;3.78;;;;;;;13.45;76.86;102246.16;5061272;28;20051;-64
2023/02/18 02:44:06;;;;;;;7.70;4.22;;;;;;;13.36;76.92;102246.00;5074002;28;20146;-64
2023/02/18 02:46:44;;;;;;;6.00;3.85;;;;;;;13.29;76.69;102244.69;5073760;28;20056;-64
2023/02/18 02:49:38;;;;;;;8.63;4.43;;;;;;;13.14;76.99;102236.59;5058160;28;20067;-63
2023/02/18 02:52:17;;;;;;;6.22;3.70;;;;;;;13.21;77.66;102234.28;5073735;28;20401;-64
2023/02/18 02:54:45;;;;;;;6.50;3.60;;;;;;;13.19;77.96;102233.75;5073913;28;20049;-62
2023/02/18 02:57:12;;;;;;;7.15;3.47;;;;;;;13.38;77.30;102235.47;5073566;28;20063;-63
2023/02/18 02:59:57;;;;;;;7.22;3.65;;;;;;;13.66;76.75;102230.13;5074123;28;20063;-63
2023/02/18 03:02:37;;;;;;;8.45;4.40;;;;;;;13.54;76.04;102239.69;5074769;28;20052;-64
2023/02/18 03:05:32;;;;;;;6.35;3.67;;;;;;;13.46;76.15;102220.97;5075101;28;20044;-64
2023/02/18 03:08:27;;;;;;;10.32;4.90;;;;;;;13.39;75.74;102228.78;5074228;28;20063;-63
2023/02/18 03:11:04;;;;;;;7.53;4.40;;;;;;;13.09;77.76;102234.66;5074648;28;20057;-64
2023/02/18 03:13:40;;;;;;;7.60;4.60;;;;;;;13.22;77.87;102233.16;5040514;28;20045;-63
2023/02/18 03:16:24;;;;;;;5.93;3.95;;;;;;;13.52;76.55;102235.56;5073366;28;20067;-64
2023/02/18 03:19:16;;;;;;;8.27;4.50;;;;;;;13.31;76.39;102232.22;5074864;28;20052;-63
2023/02/18 03:21:49;;;;;;;7.20;4.28;;;;;;;13.15;77.18;102230.75;5056222;28;20056;-63
2023/02/18 03:24:26;;;;;;;7.00;4.80;;;;;;;13.18;76.96;102226.59;5075586;28;20045;-63
2023/02/18 03:27:08;;;;;;;9.43;4.82;;;;;;;13.09;77.05;102220.84;5057707;28;20055;-63
2023/02/18 03:29:37;;;;;;;7.30;4.68;;;;;;;13.13;78.03;102219.16;5057125;28;20079;-63
2023/02/18 03:32:07;;;;;;;9.95;5.00;;;;;;;13.03;76.27;102222.03;5053392;28;20045;-63
2023/02/18 03:34:39;;;;;;;7.45;4.68;;;;;;;13.02;76.79;102214.84;5053516;28;20064;-63
2023/02/18 03:37:08;;;;;;;7.50;4.43;;;;;;;13.11;76.68;102226.91;5069939;28;20499;-64
2023/02/18 03:39:36;;;;;;;7.95;5.20;;;;;;;13.09;76.53;102225.56;5074459;28;20048;-64
2023/02/18 03:42:04;;;;;;;6.65;4.57;;;;;;;13.34;76.71;102214.19;5075088;28;20436;-63
2023/02/18 03:44:32;;;;;;;9.55;4.85;;;;;;;13.27;75.31;102213.72;5073461;28;20052;-64
2023/02/18 03:46:59;;;;;;;8.23;5.22;;;;;;;13.24;75.17;102217.09;5072616;28;20063;-64
2023/02/18 03:49:27;;;;;;;8.63;4.70;;;;;;;13.03;75.55;102218.44;5039961;28;20052;-64
2023/02/18 03:51:54;;;;;;;8.23;4.55;;;;;;;13.00;76.07;102221.75;5060097;28;20044;-64
2023/02/18 03:54:22;;;;;;;6.72;4.80;;;;;;;12.84;76.28;102221.09;5077105;28;20052;-64
2023/02/18 03:56:49;;;;;;;9.23;5.43;;;;;;;12.57;76.44;102215.25;5077177;28;20053;-63
2023/02/18 03:59:17;;;;;;;8.75;4.82;;;;;;;12.62;77.50;102217.16;5078238;28;20056;-63
2023/02/18 04:01:44;;;;;;;8.60;4.70;;;;;;;12.53;76.77;102228.03;5078220;28;20044;-64
2023/02/18 04:04:12;;;;;;;7.80;4.88;;;;;;;12.58;77.07;102216.94;5078512;28;20051;-64
2023/02/18 04:06:39;;;;;;;12.13;4.90;;;;;;;12.71;76.34;102219.00;5077540;28;20050;-64
2023/02/18 04:09:07;;;;;;;9.18;4.63;;;;;;;12.93;75.62;102224.88;5077897;28;20056;-63
2023/02/18 04:11:39;;;;;;;7.78;4.72;;;;;;;12.79;74.70;102214.78;5077865;28;20053;-64
2023/02/18 04:14:07;;;;;;;8.07;4.63;;;;;;;13.00;74.60;102216.22;5078973;28;20391;-63
2023/02/18 04:16:34;;;;;;;6.30;4.18;;;;;;;13.10;75.21;102216.13;5076334;28;20483;-63
2023/02/18 04:19:02;;;;;;;10.57;4.43;;;;;;;12.99;73.29;102220.94;5077891;28;20052;-64
2023/02/18 04:21:30;;;;;;;6.28;4.20;;;;;;;12.85;73.86;102208.91;5076017;28;20048;-63
2023/02/18 04:23:57;;;;;;;6.70;4.50;;;;;;;12.89;73.59;102215.50;5077971;28;20408;-63
2023/02/18 04:26:25;;;;;;;7.72;4.70;;;;;;;12.56;74.29;102212.78;5077568;28;20044;-64
2023/02/18 04:28:52;;;;;;;6.15;4.45;;;;;;;12.37;74.74;102220.97;5059818;28;20059;-64
2023/02/18 04:31:20;;;;;;;7.22;5.03;;;;;;;12.39;74.66;102222.34;5074230;28;20128;-63
2023/02/18 04:33:47;;;;;;;7.30;4.60;;;;;;;12.43;74.41;102212.34;5094223;28;20059;-64
2023/02/18 04:36:15;;;;;;;9.57;4.90;;;;;;;12.48;73.65;102222.56;5092114;28;20052;-64
2023/02/18 04:38:43;;;;;;;8.25;4.40;;;;;;;12.44;73.25;102225.06;5090643;28;20048;-63
2023/02/18 04:41:11;;;;;;;9.07;4.57;;;;;;;12.27;73.79;102213.59;5088840;28;20148;-65
2023/02/18 04:43:39;;;;;;;8.20;4.70;;;;;;;12.32;73.77;102212.72;5059578;28;20076;-63
2023/02/18 04:46:06;;;;;;;7.72;4.75;;;;;;;12.25;74.06;102209.47;5075930;28;20059;-64
2023/02/18 04:48:34;;;;;;;8.98;4.82;;;;;;;12.35;73.93;102212.16;5083936;28;20083;-62
2023/02/18 04:51:02;;;;;;;6.43;4.68;;;;;;;12.33;73.76;102222.66;5071888;28;20048;-63
2023/02/18 04:53:29;;;;;;;8.30;4.03;;;;;;;12.45;73.09;102212.06;5059624;28;20495;-64
2023/02/18 04:55:58;;;;;;;8.07;4.45;;;;;;;12.64;72.89;102218.50;5076375;28;20051;-63
2023/02/18 04:58:25;;;;;;;7.70;4.32;;;;;;;12.51;72.88;102221.97;5075411;28;20514;-63
2023/02/18 05:00:53;;;;;;;7.43;4.53;;;;;;;12.33;73.03;102212.44;5074771;28;20040;-63
2023/02/18 05:03:20;;;;;;;6.90;4.28;;;;;;;12.51;72.94;102218.38;5076301;28;20059;-63
2023/02/18 05:05:47;;;;;;;7.18;4.38;;;;;;;12.57;72.74;102217.22;5075856;28;20455;-63
2023/02/18 05:08:15;;;;;;;10.02;5.00;;;;;;;12.63;72.97;102222.41;5076030;28;20404;-64
2023/02/18 05:10:42;;;;;;;6.93;4.07;;;;;;;12.56;71.97;102219.16;5075479;28;20055;-62
2023/02/18 05:13:10;;;;;;;8.35;4.20;;;;;;;12.41;73.02;102230.34;5076704;28;20059;-62
2023/02/18 05:15:37;;;;;;;11.48;4.53;;;;;;;12.32;73.02;102221.84;5058135;28;20041;-64
2023/02/18 05:18:05;;;;;;;7.60;4.43;;;;;;;12.17;73.24;102215.59;5076468;28;20571;-72
2023/02/18 05:20:33;;;;;;;7.90;3.97;;;;;;;12.50;73.34;102230.56;5074716;28;20061;-62
2023/02/18 05:23:01;;;;;;;8.65;3.97;;;;;;;12.51;73.00;102227.50;5076032;28;20051;-70
2023/02/18 05:25:28;;;;;;;6.35;4.20;;;;;;;12.30;72.80;102226.00;5076359;28;20048;-70
2023/02/18 05:27:56;;;;;;;6.72;4.30;;;;;;;12.46;72.56;102231.09;5077345;28;20083;-71
2023/02/18 05:30:24;;;;;;;8.25;4.15;;;;;;;12.22;73.17;102232.16;5076225;28;20401;-71
2023/02/18 05:32:51;;;;;;;7.18;4.20;;;;;;;12.35;73.28;102217.69;5076801;28;20055;-71
2023/02/18 05:35:18;;;;;;;8.02;4.22;;;;;;;12.53;71.81;102219.75;5076299;28;20049;-71
2023/02/18 05:37:46;;;;;;;7.85;4.35;;;;;;;12.35;72.37;102217.69;5075176;28;20067;-71
2023/02/18 05:40:14;;;;;;;7.20;4.05;;;;;;;12.60;71.82;102231.28;5085672;28;20048;-71
2023/02/18 05:42:41;;;;;;;8.32;4.05;;;;;;;12.46;72.58;102228.34;5076615;28;20056;-71
2023/02/18 05:45:09;;;;;;;8.48;4.20;;;;;;;12.26;71.71;102224.94;5075514;28;20053;-71
2023/02/18 05:47:36;;;;;;;6.18;3.83;;;;;;;12.15;72.05;102220.63;5076242;28;20044;-70
2023/02/18 05:50:05;;;;;;;6.68;4.10;;;;;;;12.29;71.72;102227.94;5074267;28;20056;-71
2023/02/18 05:52:32;;;;;;;6.75;4.10;;;;;;;12.48;71.76;102228.09;5075882;28;20048;-74
2023/02/18 05:55:00;;;;;;;8.50;4.47;;;;;;;12.48;70.72;102220.59;5075017;28;20045;-71
2023/02/18 05:57:27;;;;;;;6.40;3.95;;;;;;;12.31;71.03;102216.59;5074476;28;20047;-71
2023/02/18 05:59:55;;;;;;;8.48;4.65;;;;;;;12.21;70.99;102224.97;5074159;28;20055;-71
2023/02/18 06:02:25;;;;;;;8.10;4.23;;;;;;;12.14;71.35;102213.41;5075678;28;20048;-71
2023/02/18 06:04:52;;;;;;;8.77;4.45;;;;;;;12.19;71.17;102218.91;5075891;28;20060;-71
2023/02/18 06:07:19;;;;;;;9.38;4.53;;;;;;;12.24;70.92;102213.34;5075508;28;20049;-71
2023/02/18 06:09:47;;;;;;;7.47;4.50;;;;;;;12.17;70.96;102216.44;5075700;28;20048;-72
2023/02/18 06:12:15;;;;;;;5.88;3.72;;;;;;;12.57;70.46;102215.25;5057743;28;20048;-62
2023/02/18 06:14:43;;;;;;;9.07;4.63;;;;;;;12.43;69.50;102214.28;5037655;28;20068;-63
2023/02/18 06:17:11;;;;;;;8.68;4.85;;;;;;;12.34;70.01;102218.81;5072250;28;20056;-63
2023/02/18 06:19:39;;;;;;;7.22;4.43;;;;;;;12.08;70.67;102217.34;5056915;28;20063;-63
2023/02/18 06:22:07;;;;;;;7.97;4.30;;;;;;;11.97;71.61;102218.50;5075218;28;20048;-62
2023/02/18 06:24:34;;;;;;;6.63;4.60;;;;;;;12.17;71.16;102216.44;5066553;28;20408;-62
2023/02/18 06:27:02;;;;;;;6.47;4.20;;;;;;;12.20;70.68;102213.09;5086495;28;20052;-62
2023/02/18 06:29:30;;;;;;;7.55;4.28;;;;;;;12.38;70.27;102215.16;5075724;28;20412;-64
2023/02/18 06:31:58;;;;;;;8.15;4.43;;;;;;;12.20;71.06;102215.03;5077991;28;20416;-62
2023/02/18 06:34:27;;;;;;;9.43;4.70;;;;;;;12.28;70.72;102217.19;5075248;28;20048;-70
2023/02/18 06:36:54;;;;;;;7.00;4.82;;;;;;;12.39;70.24;102211.31;5075020;28;20049;-70
2023/02/18 06:39:22;;;;;;;11.27;4.30;;;;;;;12.35;70.59;102214.91;5075027;28;20053;-70
2023/02/18 06:41:49;;;;;;;8.85;4.35;;;;;;;12.55;70.50;102208.38;5060751;28;20040;-70
2023/02/18 06:44:17;;;;;;;9.25;4.30;;;;;;;12.70;70.22;102209.06;5094566;28;20444;-70
2023/02/18 06:46:44;;;;;;;8.35;4.35;;;;;;;12.59;70.34;102196.44;5082815;28;20058;-71
2023/02/18 06:49:12;;;;;;;9.32;4.93;;;;;;;12.61;70.84;102196.16;5093237;28;20467;-72
2023/02/18 06:51:40;;;;;;;7.90;4.32;;;;;;;12.65;70.62;102200.84;5082670;28;20052;-70
2023/02/18 06:54:08;;;;;;;7.57;4.13;;;;;;;12.63;70.76;102200.28;5073709;28;20440;-72
2023/02/18 06:56:36;;;;;;;7.13;4.60;;;;;;;12.71;70.64;102201.63;5064400;28;20059;-71
2023/02/18 06:59:03;;;;;;;6.60;3.90;;;;;;;12.79;70.03;102203.72;5079475;28;20056;-72
2023/02/18 07:01:31;;;;;;;8.38;4.65;;;;;;;12.64;70.40;102198.38;5065421;28;20056;-63
2023/02/18 07:03:58;;;;;;;6.15;4.03;;;;;;;12.60;70.06;102200.88;5067573;28;20407;-63
2023/02/18 07:06:26;;;;;;;8.00;3.92;;;;;;;12.38;68.03;102201.34;5074260;28;20083;-66
2023/02/18 07:08:53;;;;;;;8.80;3.78;;;;;;;12.31;68.48;102208.31;5074029;28;20053;-72
2023/02/18 07:11:21;;;;;;;7.22;3.53;;;;;;;12.57;69.12;102198.69;5074641;28;20049;-72
2023/02/18 07:13:48;;;;;;;7.90;3.47;;;;;;;12.29;67.83;102200.31;5064987;28;20040;-71
2023/02/18 07:16:16;;;;;;;6.70;2.90;;;;;;;12.43;68.17;102209.59;5063979;28;20056;-71
2023/02/18 07:18:44;;;;;;;5.88;2.75;;;;;;;12.42;65.77;102205.19;5074935;28;20048;-71
2023/02/18 07:21:12;;;;;;;9.10;3.00;;;;;;;12.34;66.62;102207.75;5074896;28;20059;-70
2023/02/18 07:23:39;;;;;;;6.57;2.83;;;;;;;12.27;66.65;102210.00;5074332;28;20048;-71
2023/02/18 07:26:10;;;;;;;6.07;2.78;;;;;;;12.32;66.20;102219.09;5078803;28;20045;-72
2023/02/18 07:28:37;;;;;;;;;;;;;;;12.23;66.89;102215.28;5070225;28;20051;-70
2023/02/18 07:31:05;;;;;;;6.00;2.70;;;;;;;12.10;66.97;102220.66;5065520;28;19943;-63
2023/02/18 07:33:33;;;;;;;7.93;3.10;;;;;;;12.31;67.17;102216.59;5076033;28;20088;-63
2023/02/18 07:36:01;;;;;;;5.97;2.63;;;;;;;12.44;66.44;102214.03;5093636;28;20055;-62
2023/02/18 07:38:29;;;;;;;11.60;3.17;;;;;;;12.55;65.21;102211.16;5079328;28;20060;-64
2023/02/18 07:40:58;;;;;;;7.35;2.58;;;;;;;12.50;66.10;102220.31;5078100;28;20052;-63
2023/02/18 07:43:25;;;;;;;5.80;2.80;;;;;;;12.83;65.76;102207.56;5077265;28;20059;-62
2023/02/18 07:45:53;;;;;;;8.18;2.28;;;;;;;12.53;64.91;102214.22;5078212;28;20395;-63
2023/02/18 07:48:21;;;;;;;6.53;2.60;;;;;;;12.46;65.54;102217.28;5069173;28;20041;-62
2023/02/18 07:50:48;;;;;;;7.90;2.42;;;;;;;12.52;65.49;102206.22;5063058;28;20547;-72
2023/02/18 07:53:16;;;;;;;7.65;3.10;;;;;;;12.65;66.01;102216.59;5071890;28;20064;-71
2023/02/18 07:55:49;;;;;;;6.47;2.88;;;;;;;12.65;65.20;102206.34;5065117;28;20056;-73
2023/02/18 07:58:25;;;;;;;6.43;2.50;;;;;;;12.58;65.10;102216.09;5078938;28;20036;-71
2023/02/18 08:00:53;;;;;;;6.78;2.28;;;;;;;12.63;64.79;102211.34;5077598;28;20044;-72
2023/02/18 08:03:23;;;;;;;7.20;2.20;;;;;;;12.65;64.39;102220.19;5067232;28;20061;-71
2023/02/18 08:05:51;;;;;;;;;;;;;;;12.68;64.21;102222.34;5066056;28;20484;-73
2023/02/18 08:08:24;;;;;;;8.70;2.13;;;;;;;12.83;64.26;102227.72;5067371;28;19921;-71
2023/02/18 08:10:54;;;;;;;5.38;2.13;;;;;;;12.86;63.13;102221.63;5063242;28;20377;-71
2023/02/18 08:13:21;;;;;;;5.38;1.90;;;;;;;12.61;64.33;102232.09;5060269;28;20500;-70
2023/02/18 08:15:49;;;;;;;6.88;2.20;;;;;;;12.48;64.63;102230.84;5102494;28;20060;-73
2023/02/18 08:18:19;;;;;;;5.03;2.00;;;;;;;12.50;64.51;102238.84;5074399;28;20045;-72
2023/02/18 08:20:48;;;;;;;6.97;2.05;;;;;;;12.64;64.22;102237.88;5077638;28;20051;-74
2023/02/18 08:23:15;;;;;;;6.95;1.98;;;;;;;12.65;63.86;102244.22;5077105;28;20047;-72
2023/02/18 08:25:49;;;;;;;6.78;1.98;;;;;;;12.63;64.13;102239.00;5059345;28;20056;-72
2023/02/18 08:28:17;;;;;;;6.45;2.08;;;;;;;12.63;64.37;102236.22;5078484;28;20041;-72
2023/02/18 08:30:49;;;;;;;6.15;2.00;;;;;;;12.73;64.75;102243.59;5078334;28;20045;-71
2023/02/18 08:33:18;;;;;;;6.18;1.85;;;;;;;12.65;63.95;102247.81;5078192;28;20096;-73
2023/02/18 08:35:46;;;;;;;59.65;28.55;;;;;;;12.73;63.57;102246.34;5075851;28;20041;-74
2023/02/18 08:38:13;;;;;;;6.90;2.10;;;;;;;12.62;64.28;102248.41;5087623;28;20048;-72
2023/02/18 08:40:41;;;;;;;7.25;2.70;;;;;;;12.78;64.42;102238.84;5093383;28;20044;-72
2023/02/18 08:43:09;;;;;;;6.82;2.05;;;;;;;12.70;63.58;102247.78;5076485;28;20071;-71
2023/02/18 08:45:38;;;;;;;5.13;1.83;;;;;;;12.59;64.18;102248.16;5077475;28;20048;-73
2023/02/18 08:48:07;;;;;;;6.45;1.77;;;;;;;12.61;64.47;102252.28;5061139;28;20492;-72
2023/02/18 08:50:47;;;;;;;9.23;2.33;;;;;;;12.50;64.23;102252.66;5076961;28;20059;-72
2023/02/18 08:53:14;;;;;;;54.85;29.48;;;;;;;12.92;64.00;102245.34;5076202;28;20079;-71
2023/02/18 08:55:42;;;;;;;9.93;3.05;;;;;;;13.03;62.96;102249.69;5075103;28;20056;-70
2023/02/18 08:58:10;;;;;;;11.25;1.80;;;;;;;12.54;63.86;102249.03;5077758;28;20047;-71
2023/02/18 09:00:38;;;;;;;6.25;2.08;;;;;;;12.65;65.78;102247.81;5076709;28;20060;-73
2023/02/18 09:03:06;;;;;;;6.20;2.30;;;;;;;12.69;64.05;102253.59;5078202;28;20063;-71
2023/02/18 09:05:34;;;;;;;6.45;2.05;;;;;;;12.24;65.26;102257.53;5092425;28;20443;-73
2023/02/18 09:08:01;;;;;;;9.15;2.00;;;;;;;12.08;66.25;102256.81;5058819;28;20040;-71
2023/02/18 09:10:28;;;;;;;14.65;2.03;;;;;;;12.28;66.46;102253.09;5076312;28;20059;-73
2023/02/18 09:12:56;;;;;;;8.68;1.55;;;;;;;12.60;65.17;102258.09;5077208;28;20146;-73
2023/02/18 09:15:23;;;;;;;5.65;1.25;;;;;;;12.50;65.51;102253.47;5076496;28;20045;-71
2023/02/18 09:17:52;;;;;;;5.35;1.55;;;;;;;12.54;64.78;102267.53;5039653;28;20055;-72
2023/02/18 09:20:20;;;;;;;10.93;1.75;;;;;;;12.61;64.58;102254.22;5062263;28;20507;-71
2023/02/18 09:22:47;;;;;;;7.50;1.35;;;;;;;12.34;65.48;102255.53;5076990;28;20376;-70
2023/02/18 09:25:15;;;;;;;6.07;1.30;;;;;;;12.80;65.25;102258.75;5058987;28;20511;-73
2023/02/18 09:27:42;;;;;;;7.28;1.60;;;;;;;13.03;65.06;102260.75;5075866;28;20049;-73
2023/02/18 09:30:10;;;;;;;9.88;1.80;;;;;;;12.70;63.51;102258.84;5076818;28;20048;-72
2023/02/18 09:32:38;;;;;;;4.85;1.55;;;;;;;12.63;65.03;102269.41;5076561;28;20055;-73
2023/02/18 09:35:06;;;;;;;7.57;1.95;;;;;;;12.56;64.24;102259.78;5076933;28;20407;-74
2023/02/18 09:37:33;;;;;;;6.40;1.30;;;;;;;12.45;64.53;102261.81;5071521;28;20049;-73
2023/02/18 09:40:01;;;;;;;8.95;1.80;;;;;;;12.48;65.53;102263.19;5058510;28;20045;-74
2023/02/18 09:42:31;;;;;;;6.72;1.60;;;;;;;12.56;64.51;102271.66;5054202;28;20063;-72
2023/02/18 09:45:03;;;;;;;7.05;1.60;;;;;;;12.40;64.96;102276.50;5056388;28;20045;-72
2023/02/18 09:47:36;;;;;;;7.88;1.77;;;;;;;12.62;64.82;102275.22;5074638;28;20055;-73
2023/02/18 09:50:08;;;;;;;6.43;1.27;;;;;;;12.28;65.78;102264.97;5075417;28;20071;-72
2023/02/18 09:52:37;;;;;;;6.07;1.17;;;;;;;12.28;65.47;102278.78;5069244;28;20049;-70
2023/02/18 09:55:28;;;;;;;7.13;1.70;;;;;;;12.32;65.50;102266.06;5072136;28;20064;-71
2023/02/18 09:58:00;;;;;;;4.25;1.52;;;;;;;12.50;64.75;102267.28;5057918;28;20056;-73
2023/02/18 10:00:35;;;;;;;7.30;1.67;;;;;;;12.50;65.64;102269.25;5073165;28;20053;-71
2023/02/18 10:03:06;;;;;;;6.47;1.60;;;;;;;12.73;64.68;102272.06;5088044;28;20075;-71
2023/02/18 10:05:35;;;;;;;4.50;1.17;;;;;;;12.87;64.22;102264.75;5058730;28;20071;-72
2023/02/18 10:08:07;;;;;;;7.82;1.73;;;;;;;13.06;63.89;102273.16;5071970;28;20063;-72
2023/02/18 10:10:41;;;;;;;6.80;1.60;;;;;;;12.80;63.37;102278.09;5070629;28;20063;-71
2023/02/18 10:13:20;;;;;;;9.40;1.38;;;;;;;12.83;64.06;102283.03;5058975;28;20044;-72
2023/02/18 10:15:49;;;;;;;7.07;1.63;;;;;;;12.95;63.88;102274.38;5075308;28;20404;-70
2023/02/18 10:18:26;;;;;;;8.93;1.50;;;;;;;13.33;65.46;102270.66;5069206;28;20041;-72
2023/02/18 10:21:04;;;;;;;10.90;1.88;;;;;;;13.35;63.48;102277.53;5072094;28;20044;-71
2023/02/18 10:23:40;;;;;;;8.48;1.70;;;;;;;12.99;63.08;102270.72;5073201;28;20056;-72
2023/02/18 10:26:14;;;;;;;10.30;2.30;;;;;;;12.76;63.05;102277.00;5080726;28;20052;-72
2023/02/18 10:28:42;;;;;;;7.75;1.85;;;;;;;12.83;63.24;102277.50;5073556;28;20043;-73
2023/02/18 10:31:14;;;;;;;6.07;1.52;;;;;;;12.54;63.97;102281.34;5071866;28;20040;-71
2023/02/18 10:33:46;;;;;;;7.68;1.30;;;;;;;12.68;63.50;102285.09;5085253;28;20482;-73
2023/02/18 10:36:27;;;;;;;10.00;1.85;;;;;;;12.92;63.11;102288.78;5075928;28;20055;-72
2023/02/18 10:38:57;;;;;;;7.22;1.50;;;;;;;13.03;62.73;102285.66;5082484;28;20847;-72
2023/02/18 10:41:28;;;;;;;;;;;;;;;13.02;62.86;102277.66;5073712;28;20049;-72
2023/02/18 10:44:18;;;;;;;6.97;1.42;;;;;;;13.21;62.04;102284.09;5088734;28;19947;-72
2023/02/18 10:47:05;;;;;;;10.85;1.58;;;;;;;13.13;62.54;102273.66;5067144;28;20049;-72
2023/02/18 10:49:38;;;;;;;9.30;1.67;;;;;;;12.52;63.86;102278.88;5084123;28;20044;-72
2023/02/18 10:52:14;;;;;;;4.50;1.00;;;;;;;12.45;65.03;102279.22;5084611;28;20052;-72
2023/02/18 10:55:08;;;;;;;7.25;1.80;;;;;;;12.67;64.58;102280.72;5086838;28;20059;-72
2023/02/18 10:57:46;;;;;;;8.75;1.65;;;;;;;12.61;64.80;102279.91;5102837;28;20044;-72
2023/02/18 11:00:13;;;;;;;6.30;1.35;;;;;;;12.68;64.20;102279.59;5080552;28;20050;-72
2023/02/18 11:02:41;;;;;;;8.43;1.80;;;;;;;12.91;63.57;102267.75;5081382;28;20048;-72
2023/02/18 11:05:27;;;;;;;9.77;1.50;;;;;;;12.73;63.96;102280.38;5091108;28;20066;-72
2023/02/18 11:07:57;;;;;;;8.32;1.98;;;;;;;12.40;65.11;102287.56;5080102;28;20297;-71
2023/02/18 11:10:30;;;;;;;8.35;1.73;;;;;;;12.48;65.39;102278.63;5085253;28;20047;-71
2023/02/18 11:13:01;;;;;;;11.85;2.83;;;;;;;12.89;64.39;102279.13;5086807;28;20048;-71
2023/02/18 11:15:29;;;;;;;8.30;1.63;;;;;;;12.55;64.31;102278.31;5086520;28;20071;-74
2023/02/18 11:18:11;;;;;;;7.80;1.52;;;;;;;12.49;64.87;102276.69;5090607;28;20407;-72
2023/02/18 11:20:40;;;;;;;6.95;1.48;;;;;;;12.37;65.29;102284.53;5084544;28;20052;-72
2023/02/18 11:23:16;;;;;;;7.53;2.10;;;;;;;12.50;65.09;102272.00;5085002;28;20048;-70
2023/02/18 11:25:59;;;;;;;8.48;1.70;;;;;;;12.69;64.68;102273.78;5069331;28;20056;-71
2023/02/18 11:28:44;;;;;;;8.07;2.08;;;;;;;12.94;64.05;102275.47;5087847;28;20040;-73
2023/02/18 11:31:21;;;;;;;7.50;1.42;;;;;;;12.65;64.34;102274.63;5079792;28;20071;-73
2023/02/18 11:33:55;;;;;;;9.25;2.25;;;;;;;12.60;64.66;102283.81;5092569;28;20548;-71
2023/02/18 11:36:32;;;;;;;7.40;1.45;;;;;;;12.66;64.37;102285.41;5076567;28;20036;-71
2023/02/18 11:39:06;;;;;;;8.00;1.90;;;;;;;12.31;65.70;102280.13;5065088;28;20064;-72
2023/02/18 11:41:39;;;;;;;11.65;2.20;;;;;;;12.57;65.21;102270.53;5056707;28;20045;-70